createdAt,value
2023-03-20T00:01:46.295Z,10.82
2023-03-20T00:04:19.005Z,10.75
2023-03-20T00:06:58.279Z,10.73
2023-03-20T00:09:35.325Z,10.82
2023-03-20T00:12:10.861Z,10.79
2023-03-20T00:14:41.809Z,10.64
2023-03-20T00:17:23.724Z,10.63
2023-03-20T00:19:54.274Z,10.56
2023-03-20T00:28:01.820Z,10.29
2023-03-20T00:30:48.577Z,10.08
2023-03-20T00:33:17.259Z,10.18
2023-03-20T00:35:48.166Z,10.20
2023-03-20T00:38:22.264Z,10.08
2023-03-20T00:40:56.441Z,10.11
2023-03-20T00:43:25.327Z,10.29
2023-03-20T00:46:04.373Z,10.15
2023-03-20T00:48:48.927Z,10.20
2023-03-20T00:51:27.017Z,9.99
2023-03-20T00:54:05.119Z,9.88
2023-03-20T00:56:37.587Z,9.90
2023-03-20T00:59:27.750Z,9.72
2023-03-20T01:02:00.944Z,9.68
2023-03-20T01:04:49.555Z,9.63
2023-03-20T01:07:19.995Z,9.32
2023-03-20T01:09:57.081Z,9.35
2023-03-20T01:12:36.083Z,9.19
2023-03-20T01:15:05.859Z,8.98
2023-03-20T01:17:36.556Z,8.92
2023-03-20T01:20:15.043Z,9.16
2023-03-20T01:22:48.762Z,8.91
2023-03-20T01:25:35.428Z,9.02
2023-03-20T01:28:25.330Z,8.88
2023-03-20T01:30:58.801Z,8.75
2023-03-20T01:33:34.233Z,8.79
2023-03-20T01:36:03.541Z,8.63
2023-03-20T01:38:36.113Z,8.52
2023-03-20T01:41:21.698Z,8.46
2023-03-20T01:44:06.148Z,8.50
2023-03-20T01:46:40.065Z,8.61
2023-03-20T01:49:28.663Z,8.64
2023-03-20T01:52:07.970Z,8.68
2023-03-20T01:54:43.122Z,8.69
2023-03-20T01:57:31.545Z,8.77
2023-03-20T02:00:15.327Z,8.86
2023-03-20T02:02:51.096Z,8.94
2023-03-20T02:05:57.753Z,9.12
2023-03-20T02:08:38.516Z,9.04
2023-03-20T02:11:10.470Z,9.07
2023-03-20T02:13:46.405Z,8.99
2023-03-20T02:16:22.885Z,8.67
2023-03-20T02:19:06.450Z,8.72
2023-03-20T02:21:49.188Z,8.71
2023-03-20T02:24:40.275Z,8.43
2023-03-20T02:27:52.799Z,8.28
2023-03-20T02:30:45.532Z,8.13
2023-03-20T02:33:54.931Z,7.88
2023-03-20T02:36:56.260Z,7.48
2023-03-20T02:39:55.944Z,7.44
2023-03-20T02:42:50.729Z,7.51
2023-03-20T02:45:39.618Z,7.35
2023-03-20T02:49:02.820Z,7.58
2023-03-20T02:51:50.304Z,7.74
2023-03-20T02:54:40.689Z,7.61
2023-03-20T02:58:00.348Z,7.70
2023-03-20T03:00:42.931Z,7.29
2023-03-20T03:03:58.314Z,6.87
2023-03-20T03:06:39.785Z,7.08
2023-03-20T03:09:34.623Z,7.34
2023-03-20T03:12:22.007Z,7.24
2023-03-20T03:15:05.836Z,7.43
2023-03-20T03:17:38.679Z,7.07
2023-03-20T03:20:48.151Z,7.26
2023-03-20T03:23:45.030Z,7.01
2023-03-20T03:26:45.420Z,7.04
2023-03-20T03:29:25.570Z,7.29
2023-03-20T03:31:56.680Z,7.32
2023-03-20T03:34:27.162Z,7.08
2023-03-20T03:37:46.345Z,7.31
2023-03-20T03:40:35.100Z,7.36
2023-03-20T03:43:38.177Z,7.23
2023-03-20T03:46:32.509Z,7.31
2023-03-20T03:49:01.767Z,7.35
2023-03-20T03:51:37.416Z,7.36
2023-03-20T03:54:26.842Z,7.34
2023-03-20T03:57:29.786Z,7.08
2023-03-20T04:00:07.561Z,7.10
2023-03-20T04:03:06.357Z,7.03
2023-03-20T04:05:40.898Z,7.09
2023-03-20T04:08:09.875Z,6.93
2023-03-20T04:10:42.845Z,7.03
2023-03-20T04:13:27.675Z,7.15
2023-03-20T04:18:58.857Z,7.07
2023-03-20T04:21:30.014Z,6.86
2023-03-20T04:24:01.026Z,6.69
2023-03-20T04:26:28.901Z,6.59
2023-03-20T04:29:04.186Z,6.67
2023-03-20T04:32:13.562Z,6.54
2023-03-20T04:35:04.846Z,6.66
2023-03-20T04:37:55.440Z,6.63
2023-03-20T04:40:34.022Z,6.76
2023-03-20T04:43:07.422Z,6.81
2023-03-20T04:45:39.421Z,6.50
2023-03-20T04:48:14.855Z,6.59
2023-03-20T04:50:50.828Z,6.69
2023-03-20T04:53:27.687Z,6.83
2023-03-20T04:58:43.126Z,6.58
2023-03-20T05:01:15.305Z,6.86
2023-03-20T05:03:45.438Z,6.57
2023-03-20T05:06:18.663Z,6.58
2023-03-20T05:08:52.820Z,6.51
2023-03-20T05:11:23.593Z,6.43
2023-03-20T05:14:11.876Z,6.27
2023-03-20T05:17:02.157Z,6.49
2023-03-20T05:19:55.632Z,6.53
2023-03-20T05:22:48.619Z,6.66
2023-03-20T05:25:47.613Z,6.69
2023-03-20T05:28:44.104Z,6.59
2023-03-20T05:31:47.379Z,6.77
2023-03-20T05:34:36.863Z,6.84
2023-03-20T05:37:29.940Z,6.94
2023-03-20T05:40:34.000Z,6.76
2023-03-20T05:43:22.873Z,6.57
2023-03-20T05:46:24.410Z,6.81
2023-03-20T05:49:29.021Z,6.66
2023-03-20T05:52:24.237Z,6.54
2023-03-20T05:55:20.296Z,6.76
2023-03-20T05:58:31.655Z,6.87
2023-03-20T06:01:19.611Z,6.91
2023-03-20T06:04:11.033Z,6.79
2023-03-20T06:07:10.630Z,7.11
2023-03-20T06:12:30.984Z,7.32
2023-03-20T06:15:01.902Z,7.41
2023-03-20T06:17:37.578Z,7.54
2023-03-20T06:20:12.501Z,7.59
2023-03-20T06:22:53.563Z,7.66
2023-03-20T06:25:25.514Z,7.70
2023-03-20T06:28:03.947Z,7.69
2023-03-20T06:30:36.018Z,7.58
2023-03-20T06:33:19.815Z,7.68
2023-03-20T06:36:10.912Z,7.87
2023-03-20T06:38:48.348Z,7.83
2023-03-20T06:41:33.674Z,7.45
2023-03-20T06:44:09.104Z,7.87
2023-03-20T06:47:21.844Z,7.85
2023-03-20T06:49:54.774Z,7.82
2023-03-20T06:52:23.663Z,7.83
2023-03-20T06:55:20.296Z,7.78
2023-03-20T06:57:50.156Z,7.81
2023-03-20T07:00:22.862Z,7.85
2023-03-20T07:02:52.166Z,7.89
2023-03-20T07:05:23.746Z,7.97
2023-03-20T07:07:55.339Z,8.07
2023-03-20T07:10:41.814Z,8.13
2023-03-20T07:13:19.717Z,8.11
2023-03-20T07:16:03.641Z,8.25
2023-03-20T07:18:58.978Z,8.27
2023-03-20T07:21:30.134Z,8.41
2023-03-20T07:24:03.006Z,8.62
2023-03-20T07:26:36.321Z,8.54
2023-03-20T07:29:15.265Z,8.48
2023-03-20T07:31:46.836Z,8.51
2023-03-20T07:34:33.870Z,8.65
2023-03-20T07:37:10.343Z,8.72
2023-03-20T07:39:45.159Z,8.73
2023-03-20T07:42:42.481Z,8.83
2023-03-20T07:45:32.821Z,8.86
2023-03-20T07:48:03.313Z,8.71
2023-03-20T07:50:36.608Z,8.87
2023-03-20T07:53:07.931Z,8.88
2023-03-20T07:55:45.596Z,8.71
2023-03-20T07:58:15.724Z,8.96
2023-03-20T08:00:52.719Z,8.69
2023-03-20T08:03:31.453Z,9.13
2023-03-20T08:06:07.989Z,9.21
2023-03-20T08:08:55.442Z,9.33
2023-03-20T08:11:34.256Z,9.46
2023-03-20T08:14:08.485Z,9.47
2023-03-20T08:16:37.768Z,9.38
2023-03-20T08:19:12.574Z,9.60
2023-03-20T08:21:46.392Z,9.83
2023-03-20T08:24:23.660Z,9.56
2023-03-20T08:26:58.074Z,9.86
2023-03-20T08:32:16.704Z,10.12
2023-03-20T08:34:46.625Z,10.17
2023-03-20T08:37:25.699Z,10.23
2023-03-20T08:40:06.794Z,10.31
2023-03-20T08:42:45.388Z,10.25
2023-03-20T08:45:31.350Z,10.53
2023-03-20T08:48:03.594Z,10.51
2023-03-20T08:50:34.614Z,10.71
2023-03-20T08:53:08.380Z,10.88
2023-03-20T08:55:36.850Z,11.09
2023-03-20T08:58:24.881Z,11.50
2023-03-20T09:00:59.178Z,11.67
2023-03-20T09:03:30.314Z,11.54
2023-03-20T09:06:02.299Z,11.64
2023-03-20T09:08:32.404Z,11.84
2023-03-20T09:11:18.615Z,11.61
2023-03-20T09:13:50.096Z,12.09
2023-03-20T09:16:20.001Z,11.97
2023-03-20T09:18:51.616Z,11.97
2023-03-20T09:21:29.208Z,11.93
2023-03-20T09:23:59.913Z,12.01
2023-03-20T09:26:37.759Z,12.18
2023-03-20T09:29:09.451Z,12.05
2023-03-20T09:31:38.840Z,12.02
2023-03-20T09:34:09.684Z,12.21
2023-03-20T09:36:47.351Z,12.27
2023-03-20T09:39:15.581Z,12.36
2023-03-20T09:41:57.239Z,12.41
2023-03-20T09:44:57.573Z,12.31
2023-03-20T09:48:00.807Z,12.39
2023-03-20T09:50:43.709Z,12.56
2023-03-20T09:53:24.912Z,12.61
2023-03-20T09:55:56.634Z,12.72
2023-03-20T09:58:28.787Z,12.53
2023-03-20T10:01:06.855Z,12.76
2023-03-20T10:04:03.116Z,12.71
2023-03-20T10:06:32.725Z,12.80
2023-03-20T10:09:12.027Z,12.65
2023-03-20T10:12:03.740Z,12.86
2023-03-20T10:14:34.651Z,13.04
2023-03-20T10:17:24.594Z,12.85
2023-03-20T10:20:01.868Z,13.29
2023-03-20T10:22:38.015Z,13.22
2023-03-20T10:25:42.157Z,13.80
2023-03-20T10:28:30.690Z,13.67
2023-03-20T10:31:32.115Z,14.02
2023-03-20T10:34:49.429Z,14.34
2023-03-20T10:38:02.818Z,14.28
2023-03-20T10:40:44.207Z,14.11
2023-03-20T10:43:24.595Z,14.38
2023-03-20T10:46:30.709Z,14.87
2023-03-20T10:49:30.400Z,15.14
2023-03-20T10:52:08.339Z,15.06
2023-03-20T10:54:50.826Z,15.20
2023-03-20T10:57:35.074Z,15.23
2023-03-20T11:00:13.617Z,14.97
2023-03-20T11:02:49.785Z,15.44
2023-03-20T11:05:39.316Z,15.87
2023-03-20T11:08:17.031Z,16.76
2023-03-20T11:11:00.915Z,16.74
2023-03-20T11:13:46.083Z,16.77
2023-03-20T11:16:26.197Z,17.14
2023-03-20T11:18:59.839Z,16.93
2023-03-20T11:21:34.778Z,17.18
2023-03-20T11:24:04.129Z,17.26
2023-03-20T11:26:49.427Z,16.75
2023-03-20T11:29:45.605Z,16.65
2023-03-20T11:32:51.194Z,16.58
2023-03-20T11:35:33.196Z,16.37
2023-03-20T11:38:20.845Z,16.60
2023-03-20T11:40:58.193Z,16.41
2023-03-20T11:43:37.324Z,16.68
2023-03-20T11:46:19.193Z,16.60
2023-03-20T11:48:48.391Z,16.33
2023-03-20T11:51:28.561Z,16.22
2023-03-20T11:54:22.510Z,16.33
2023-03-20T11:57:24.327Z,16.12
2023-03-20T12:00:00.138Z,16.18
2023-03-20T12:02:45.493Z,15.86
2023-03-20T12:05:53.020Z,15.57
2023-03-20T12:08:30.536Z,15.42
2023-03-20T12:11:25.978Z,15.36
2023-03-20T12:14:04.646Z,15.19
2023-03-20T12:16:40.009Z,15.19
2023-03-20T12:19:20.925Z,15.05
2023-03-20T12:22:07.954Z,14.76
2023-03-20T12:24:56.205Z,14.61
2023-03-20T12:27:39.291Z,14.56
2023-03-20T12:30:39.529Z,14.26
2023-03-20T12:33:36.391Z,14.11
2023-03-20T12:36:13.815Z,13.93
2023-03-20T12:38:55.237Z,13.97
2023-03-20T12:41:35.605Z,13.92
2023-03-20T12:44:27.957Z,13.85
2023-03-20T12:47:49.078Z,13.65
2023-03-20T12:50:47.305Z,13.73
2023-03-20T12:53:24.351Z,13.67
2023-03-20T12:56:32.537Z,13.73
2023-03-20T12:59:11.338Z,13.70
2023-03-20T13:01:59.991Z,13.56
2023-03-20T13:04:58.022Z,13.55
2023-03-20T13:08:10.952Z,13.60
2023-03-20T13:14:09.858Z,13.52
2023-03-20T13:16:48.543Z,13.52
2023-03-20T13:19:37.718Z,13.47
2023-03-20T13:22:26.697Z,13.44
2023-03-20T13:25:25.854Z,13.41
2023-03-20T13:28:21.601Z,13.40
2023-03-20T13:34:33.321Z,13.35
2023-03-20T13:37:24.343Z,13.36
2023-03-20T13:40:43.800Z,13.20
2023-03-20T13:43:57.895Z,13.13
2023-03-20T13:46:53.116Z,13.16
2023-03-20T13:49:40.124Z,13.21
2023-03-20T13:52:27.691Z,13.15
2023-03-20T13:55:28.741Z,13.25
2023-03-20T13:58:53.285Z,13.31
2023-03-20T14:02:03.650Z,13.28
2023-03-20T14:04:36.971Z,13.30
2023-03-20T14:07:40.728Z,13.37
2023-03-20T14:10:26.659Z,13.41
2023-03-20T14:13:21.825Z,13.40
2023-03-20T14:16:02.051Z,13.31
2023-03-20T14:18:35.183Z,13.31
2023-03-20T14:21:15.632Z,13.35
2023-03-20T14:23:51.105Z,13.38
2023-03-20T14:26:30.637Z,13.38
2023-03-20T14:29:44.498Z,13.39
2023-03-20T14:32:21.702Z,13.26
2023-03-20T14:35:02.784Z,13.36
2023-03-20T14:37:55.800Z,13.40
2023-03-20T14:40:39.371Z,13.40
2023-03-20T14:44:05.948Z,13.49
2023-03-20T14:47:25.960Z,13.44
2023-03-20T14:50:04.743Z,13.44
2023-03-20T14:53:23.308Z,13.36
2023-03-20T14:56:11.827Z,13.43
2023-03-20T14:58:58.196Z,13.43
2023-03-20T15:02:03.498Z,13.36
2023-03-20T15:04:40.433Z,13.38
2023-03-20T15:07:21.422Z,13.33
2023-03-20T15:10:01.833Z,13.33
2023-03-20T15:12:37.636Z,13.28
2023-03-20T15:15:26.297Z,13.29
2023-03-20T15:17:56.244Z,13.31
2023-03-20T15:20:40.477Z,13.19
2023-03-20T15:23:13.880Z,12.99
2023-03-20T15:26:03.211Z,12.89
2023-03-20T15:28:38.344Z,12.99
2023-03-20T15:31:23.333Z,12.97
2023-03-20T15:33:54.858Z,12.93
2023-03-20T15:36:30.892Z,12.86
2023-03-20T15:39:27.186Z,12.90
2023-03-20T15:42:09.292Z,12.92
2023-03-20T15:44:39.812Z,12.92
2023-03-20T15:47:28.763Z,12.93
2023-03-20T15:50:10.828Z,12.94
2023-03-20T15:52:55.029Z,12.88
2023-03-20T15:55:33.078Z,12.84
2023-03-20T15:58:08.648Z,12.79
2023-03-20T16:00:49.430Z,12.74
2023-03-20T16:03:22.232Z,12.76
2023-03-20T16:06:02.281Z,12.66
2023-03-20T16:08:37.055Z,12.62
2023-03-20T16:11:36.005Z,12.54
2023-03-20T16:14:16.221Z,12.56
2023-03-20T16:16:45.635Z,12.49
2023-03-20T16:19:16.067Z,12.40
2023-03-20T16:22:34.917Z,12.42
2023-03-20T16:25:24.382Z,12.43
2023-03-20T16:27:55.813Z,12.34
2023-03-20T16:30:34.103Z,12.39
2023-03-20T16:33:19.223Z,12.44
2023-03-20T16:35:50.925Z,12.30
2023-03-20T16:38:31.557Z,12.29
2023-03-20T16:41:41.166Z,12.34
2023-03-20T16:44:40.433Z,12.18
2023-03-20T16:47:49.947Z,11.90
2023-03-20T16:50:30.663Z,11.78
2023-03-20T16:53:11.064Z,11.69
2023-03-20T16:55:51.588Z,11.69
2023-03-20T16:58:28.383Z,11.58
2023-03-20T17:01:13.945Z,11.69
2023-03-20T17:03:52.575Z,11.76
2023-03-20T17:12:19.166Z,11.95
2023-03-20T17:14:51.715Z,11.98
2023-03-20T17:17:30.192Z,11.68
2023-03-20T17:20:04.826Z,11.53
2023-03-20T17:22:41.449Z,11.54
2023-03-20T17:25:20.107Z,11.55
2023-03-20T17:27:50.850Z,11.56
2023-03-20T17:30:25.745Z,11.45
2023-03-20T17:32:56.862Z,11.29
2023-03-20T17:38:20.361Z,11.14
2023-03-20T17:40:57.561Z,11.17
2023-03-20T17:43:31.214Z,11.20
2023-03-20T17:46:04.877Z,11.16
2023-03-20T17:48:38.638Z,10.85
2023-03-20T17:51:08.120Z,10.79
2023-03-20T17:53:40.127Z,11.06
2023-03-20T17:56:22.961Z,10.81
2023-03-20T17:58:53.891Z,11.07
2023-03-20T18:01:33.207Z,10.88
2023-03-20T18:04:07.177Z,10.98
2023-03-20T18:06:38.248Z,10.72
2023-03-20T18:09:08.947Z,10.79
2023-03-20T18:14:26.299Z,10.69
2023-03-20T18:16:56.633Z,10.66
2023-03-20T18:19:30.884Z,10.60
2023-03-20T18:22:09.298Z,10.76
2023-03-20T18:24:42.762Z,10.46
2023-03-20T18:27:15.710Z,10.27
2023-03-20T18:29:47.575Z,10.17
2023-03-20T18:32:28.544Z,10.06
2023-03-20T18:35:10.104Z,10.24
2023-03-20T18:38:04.714Z,9.82
2023-03-20T18:40:38.112Z,10.01
2023-03-20T18:43:12.232Z,9.95
2023-03-20T18:45:46.258Z,10.08
2023-03-20T18:48:18.447Z,9.55
2023-03-20T18:51:06.304Z,9.60
2023-03-20T18:53:40.077Z,9.41
2023-03-20T18:56:24.356Z,9.56
2023-03-20T18:59:02.323Z,9.39
2023-03-20T19:01:41.705Z,8.99
2023-03-20T19:04:11.270Z,9.21
2023-03-20T19:06:43.325Z,9.09
2023-03-20T19:09:13.754Z,8.93
2023-03-20T19:11:43.034Z,8.83
2023-03-20T19:14:21.013Z,8.84
2023-03-20T19:19:38.693Z,8.65
2023-03-20T19:24:57.356Z,8.61
2023-03-20T19:27:28.374Z,8.29
2023-03-20T19:30:02.748Z,7.91
2023-03-20T19:32:34.065Z,7.86
2023-03-20T19:35:43.644Z,7.58
2023-03-20T19:37:57.117Z,7.66
2023-03-20T19:41:06.581Z,7.89
2023-03-20T19:43:52.158Z,7.73
2023-03-20T19:46:42.518Z,8.00
2023-03-20T19:49:36.000Z,8.31
2023-03-20T19:52:07.292Z,8.17
2023-03-20T19:54:53.006Z,8.25
2023-03-20T19:57:33.085Z,8.06
2023-03-20T20:00:55.013Z,7.99
2023-03-20T20:03:07.233Z,8.33
2023-03-20T20:05:45.291Z,8.02
2023-03-20T20:08:33.400Z,7.91
2023-03-20T20:11:12.957Z,7.68
2023-03-20T20:16:41.117Z,7.73
2023-03-20T20:19:24.944Z,7.69
2023-03-20T20:22:24.810Z,7.40
2023-03-20T20:24:50.280Z,7.47
2023-03-20T20:27:20.753Z,7.36
2023-03-20T20:29:56.970Z,7.45
2023-03-20T20:32:27.929Z,7.71
2023-03-20T20:38:33.481Z,7.82
2023-03-20T20:40:48.327Z,7.75
2023-03-20T20:43:48.497Z,7.72
2023-03-20T20:46:11.573Z,7.66
2023-03-20T20:48:57.334Z,7.37
2023-03-20T20:51:31.127Z,7.55
2023-03-20T20:54:01.205Z,7.50
2023-03-20T20:56:31.869Z,7.11
2023-03-20T20:59:15.038Z,6.90
2023-03-20T21:01:58.585Z,6.75
2023-03-20T21:04:32.228Z,6.64
2023-03-20T21:07:11.570Z,5.97
2023-03-20T21:09:46.747Z,6.20
2023-03-20T21:12:34.752Z,6.21
2023-03-20T21:15:12.191Z,6.63
2023-03-20T21:17:59.478Z,6.65
2023-03-20T21:20:33.635Z,6.50
2023-03-20T21:23:08.262Z,6.17
2023-03-20T21:25:44.662Z,6.04
2023-03-20T21:28:18.480Z,6.23
2023-03-20T21:31:12.401Z,6.18
2023-03-20T21:33:46.197Z,6.31
2023-03-20T21:36:14.185Z,6.62
2023-03-20T21:39:14.438Z,6.37
2023-03-20T21:41:38.976Z,6.38
2023-03-20T21:44:46.082Z,6.39
2023-03-20T21:53:34.942Z,6.45
2023-03-20T22:05:09.812Z,6.21
2023-03-20T22:10:55.814Z,6.07
2023-03-20T22:13:47.311Z,5.85
2023-03-20T22:17:06.453Z,5.68
2023-03-20T22:22:13.781Z,5.72
2023-03-20T22:25:11.427Z,5.68
2023-03-20T22:31:17.229Z,5.29
2023-03-20T22:34:16.208Z,4.91
2023-03-20T22:37:09.337Z,4.67
2023-03-20T22:40:03.279Z,4.96
2023-03-20T22:45:09.635Z,5.20
2023-03-20T22:47:43.052Z,4.98
2023-03-20T22:50:26.179Z,5.43
2023-03-20T22:53:08.329Z,4.91
2023-03-20T22:55:39.288Z,5.40
2023-03-20T23:00:58.518Z,5.49
2023-03-20T23:03:41.019Z,5.39
2023-03-20T23:06:33.206Z,5.07
2023-03-20T23:09:14.508Z,5.03
2023-03-20T23:14:44.859Z,5.36
2023-03-20T23:17:16.775Z,5.55
2023-03-20T23:19:52.131Z,5.47
2023-03-20T23:22:26.132Z,5.09
2023-03-20T23:25:23.962Z,5.30
2023-03-20T23:28:09.176Z,5.52
2023-03-20T23:30:51.795Z,5.27
2023-03-20T23:33:33.879Z,5.14
2023-03-20T23:36:19.010Z,5.10
2023-03-20T23:38:56.800Z,4.82
2023-03-20T23:41:53.685Z,4.64
2023-03-20T23:44:19.108Z,4.75
2023-03-20T23:46:49.915Z,4.93
2023-03-20T23:49:26.235Z,5.08
2023-03-20T23:52:05.495Z,5.05
2023-03-20T23:54:43.696Z,4.62
2023-03-20T23:57:25.234Z,3.84
2023-03-20T23:59:58.986Z,3.91
